createdAt,value
2023-01-22T00:01:09.792Z,6.88
2023-01-22T00:03:37.368Z,7.05
2023-01-22T00:06:05.827Z,7.63
2023-01-22T00:08:34.080Z,7.57
2023-01-22T00:11:04.419Z,7.68
2023-01-22T00:13:31.625Z,8.30
2023-01-22T00:15:59.984Z,8.32
2023-01-22T00:18:27.717Z,7.97
2023-01-22T00:20:55.982Z,8.32
2023-01-22T00:23:27.122Z,8.27
2023-01-22T00:26:07.553Z,7.85
2023-01-22T00:28:34.702Z,8.02
2023-01-22T00:31:05.248Z,7.88
2023-01-22T00:33:36.011Z,7.97
2023-01-22T00:36:16.503Z,8.23
2023-01-22T00:38:44.392Z,8.60
2023-01-22T00:41:13.515Z,9.43
2023-01-22T00:43:41.250Z,9.50
2023-01-22T00:46:11.984Z,7.63
2023-01-22T00:48:39.432Z,8.52
2023-01-22T00:51:10.545Z,8.85
2023-01-22T00:53:41.324Z,8.55
2023-01-22T00:56:08.965Z,8.57
2023-01-22T00:58:36.106Z,7.97
2023-01-22T01:01:03.999Z,8.82
2023-01-22T01:03:31.977Z,8.40
2023-01-22T01:06:06.369Z,8.63
2023-01-22T01:08:40.118Z,8.30
2023-01-22T01:11:12.512Z,8.07
2023-01-22T01:16:20.673Z,9.88
2023-01-22T01:18:48.625Z,9.63
2023-01-22T01:21:17.688Z,9.52
2023-01-22T01:23:45.257Z,7.72
2023-01-22T01:26:16.248Z,8.82
2023-01-22T01:28:45.613Z,8.13
2023-01-22T01:31:16.700Z,6.75
2023-01-22T01:33:44.368Z,9.52
2023-01-22T01:36:30.659Z,7.97
2023-01-22T01:39:07.604Z,7.43
2023-01-22T01:41:34.866Z,6.68
2023-01-22T01:44:34.093Z,6.88
2023-01-22T01:47:08.298Z,6.85
2023-01-22T01:49:47.696Z,5.65
2023-01-22T01:52:16.430Z,7.25
2023-01-22T01:54:53.352Z,6.63
2023-01-22T01:57:27.953Z,6.35
2023-01-22T01:59:56.610Z,6.78
2023-01-22T02:02:24.785Z,6.75
2023-01-22T02:04:54.171Z,6.32
2023-01-22T02:07:23.839Z,6.32
2023-01-22T02:09:50.970Z,5.40
2023-01-22T02:12:20.444Z,6.32
2023-01-22T02:14:49.980Z,5.50
2023-01-22T02:17:22.279Z,6.32
2023-01-22T02:19:49.542Z,6.40
2023-01-22T02:22:27.654Z,5.72
2023-01-22T02:24:55.190Z,5.80
2023-01-22T02:27:24.810Z,6.35
2023-01-22T02:29:52.157Z,6.90
2023-01-22T02:32:19.456Z,6.57
2023-01-22T02:34:46.885Z,5.93
2023-01-22T02:37:14.391Z,7.25
2023-01-22T02:39:41.538Z,6.70
2023-01-22T02:42:09.412Z,6.40
2023-01-22T02:44:36.534Z,6.55
2023-01-22T02:47:03.690Z,7.10
2023-01-22T02:49:33.519Z,7.45
2023-01-22T02:52:00.622Z,6.82
2023-01-22T02:54:27.686Z,6.15
2023-01-22T02:56:57.429Z,7.35
2023-01-22T02:59:24.784Z,6.63
2023-01-22T03:01:56.909Z,7.18
2023-01-22T03:06:51.094Z,6.45
2023-01-22T03:09:18.341Z,6.13
2023-01-22T03:11:47.336Z,6.25
2023-01-22T03:14:33.791Z,6.75
2023-01-22T03:17:19.788Z,7.18
2023-01-22T03:20:05.636Z,6.47
2023-01-22T03:22:32.979Z,7.03
2023-01-22T03:25:01.513Z,6.78
2023-01-22T03:27:33.264Z,6.70
2023-01-22T03:30:00.445Z,6.50
2023-01-22T03:32:27.815Z,6.82
2023-01-22T03:34:59.669Z,6.50
2023-01-22T03:37:26.923Z,6.43
2023-01-22T03:39:54.153Z,6.05
2023-01-22T03:42:21.323Z,6.93
2023-01-22T03:44:48.460Z,7.45
2023-01-22T03:47:17.340Z,7.30
2023-01-22T03:49:44.491Z,6.75
2023-01-22T03:52:11.664Z,6.65
2023-01-22T03:54:38.728Z,7.68
2023-01-22T03:57:05.904Z,7.78
2023-01-22T03:59:35.924Z,7.63
2023-01-22T04:02:03.132Z,6.82
2023-01-22T04:04:30.294Z,7.10
2023-01-22T04:06:57.542Z,7.20
2023-01-22T04:09:24.685Z,6.50
2023-01-22T04:11:51.796Z,6.93
2023-01-22T04:14:18.900Z,6.53
2023-01-22T04:16:46.034Z,6.68
2023-01-22T04:19:13.349Z,6.97
2023-01-22T04:21:42.959Z,6.55
2023-01-22T04:24:10.336Z,6.55
2023-01-22T04:26:38.484Z,6.97
2023-01-22T04:29:05.588Z,6.22
2023-01-22T04:31:32.863Z,6.68
2023-01-22T04:34:00.036Z,6.70
2023-01-22T04:36:29.771Z,5.63
2023-01-22T04:38:56.998Z,5.97
2023-01-22T04:41:24.231Z,6.50
2023-01-22T04:43:53.649Z,6.10
2023-01-22T04:46:20.983Z,6.22
2023-01-22T04:48:50.803Z,6.35
2023-01-22T04:51:20.445Z,6.90
2023-01-22T04:53:47.607Z,6.95
2023-01-22T04:56:14.661Z,6.80
2023-01-22T04:58:41.867Z,6.85
2023-01-22T05:01:08.977Z,6.63
2023-01-22T05:03:36.170Z,7.10
2023-01-22T05:06:05.216Z,6.90
2023-01-22T05:08:32.353Z,6.93
2023-01-22T05:11:03.040Z,6.70
2023-01-22T05:13:32.822Z,6.80
2023-01-22T05:15:59.946Z,6.65
2023-01-22T05:18:29.523Z,7.03
2023-01-22T05:20:58.792Z,7.13
2023-01-22T05:23:26.339Z,6.47
2023-01-22T05:25:53.504Z,6.80
2023-01-22T05:28:23.114Z,7.22
2023-01-22T05:30:50.370Z,6.97
2023-01-22T05:33:17.620Z,6.85
2023-01-22T05:35:44.880Z,6.78
2023-01-22T05:38:11.958Z,7.75
2023-01-22T05:40:39.056Z,7.90
2023-01-22T05:43:06.194Z,8.38
2023-01-22T05:45:33.351Z,8.55
2023-01-22T05:48:04.964Z,8.65
2023-01-22T05:50:32.183Z,8.55
2023-01-22T05:52:59.349Z,9.35
2023-01-22T05:55:26.391Z,9.95
2023-01-22T05:57:53.547Z,9.88
2023-01-22T06:00:25.171Z,10.00
2023-01-22T06:03:00.108Z,10.65
2023-01-22T06:05:27.758Z,10.25
2023-01-22T06:07:55.074Z,8.93
2023-01-22T06:10:22.186Z,8.68
2023-01-22T06:12:49.431Z,11.07
2023-01-22T06:15:16.770Z,9.30
2023-01-22T06:17:46.219Z,7.75
2023-01-22T06:20:13.482Z,7.55
2023-01-22T06:22:40.849Z,7.00
2023-01-22T06:25:09.488Z,6.57
2023-01-22T06:27:36.731Z,7.28
2023-01-22T06:30:04.171Z,6.63
2023-01-22T06:32:31.288Z,7.30
2023-01-22T06:34:58.540Z,8.30
2023-01-22T06:37:25.802Z,8.95
2023-01-22T06:39:52.902Z,7.97
2023-01-22T06:42:19.986Z,8.00
2023-01-22T06:44:52.750Z,7.47
2023-01-22T06:47:22.385Z,7.82
2023-01-22T06:49:49.383Z,7.68
2023-01-22T06:52:16.679Z,7.43
2023-01-22T06:54:43.887Z,8.48
2023-01-22T06:57:13.532Z,7.70
2023-01-22T06:59:40.932Z,8.27
2023-01-22T07:02:08.073Z,7.40
2023-01-22T07:04:37.636Z,7.43
2023-01-22T07:07:07.334Z,6.80
2023-01-22T07:09:37.029Z,7.80
2023-01-22T07:12:06.757Z,7.75
2023-01-22T07:14:37.556Z,6.90
2023-01-22T07:17:05.135Z,7.25
2023-01-22T07:19:32.474Z,7.25
2023-01-22T07:21:59.701Z,7.28
2023-01-22T07:24:27.048Z,8.10
2023-01-22T07:26:56.703Z,7.30
2023-01-22T07:29:23.925Z,7.63
2023-01-22T07:31:51.049Z,7.85
2023-01-22T07:34:18.244Z,7.93
2023-01-22T07:36:47.051Z,7.47
2023-01-22T07:39:14.192Z,8.32
2023-01-22T07:41:43.942Z,8.50
2023-01-22T07:44:12.686Z,7.78
2023-01-22T07:46:39.861Z,9.55
2023-01-22T07:49:07.313Z,11.13
2023-01-22T07:51:34.960Z,10.93
2023-01-22T07:54:03.284Z,10.05
2023-01-22T07:56:30.552Z,8.48
2023-01-22T07:58:57.726Z,8.15
2023-01-22T08:01:24.904Z,16.45
2023-01-22T08:03:52.638Z,15.82
2023-01-22T08:06:23.026Z,12.95
2023-01-22T08:08:50.555Z,14.68
2023-01-22T08:11:17.919Z,14.00
2023-01-22T08:13:47.800Z,11.93
2023-01-22T08:16:14.895Z,11.05
2023-01-22T08:18:42.052Z,10.43
2023-01-22T08:21:09.168Z,11.07
2023-01-22T08:23:36.269Z,9.85
2023-01-22T08:26:04.720Z,9.50
2023-01-22T08:28:32.478Z,11.35
2023-01-22T08:31:02.510Z,11.23
2023-01-22T08:33:33.363Z,10.80
2023-01-22T08:36:02.943Z,10.48
2023-01-22T08:38:32.567Z,10.57
2023-01-22T08:40:59.709Z,9.82
2023-01-22T08:43:26.825Z,9.55
2023-01-22T08:45:54.027Z,10.32
2023-01-22T08:48:21.324Z,11.32
2023-01-22T08:50:48.432Z,12.85
2023-01-22T08:53:15.675Z,11.90
2023-01-22T08:55:48.936Z,12.88
2023-01-22T08:58:16.087Z,11.82
2023-01-22T09:00:44.689Z,13.02
2023-01-22T09:03:11.774Z,11.23
2023-01-22T09:05:40.620Z,14.25
2023-01-22T09:08:08.887Z,13.23
2023-01-22T09:10:35.959Z,13.63
2023-01-22T09:13:03.361Z,12.13
2023-01-22T09:15:30.476Z,11.82
2023-01-22T09:17:57.600Z,10.27
2023-01-22T09:20:24.875Z,11.07
2023-01-22T09:22:52.120Z,11.15
2023-01-22T09:25:19.266Z,11.27
2023-01-22T09:27:46.559Z,13.98
2023-01-22T09:30:17.088Z,11.77
2023-01-22T09:32:44.576Z,13.13
2023-01-22T09:35:11.696Z,13.57
2023-01-22T09:37:38.802Z,12.55
2023-01-22T09:40:07.000Z,15.23
2023-01-22T09:42:40.432Z,17.38
2023-01-22T09:45:13.515Z,17.80
2023-01-22T09:47:48.153Z,18.38
2023-01-22T09:50:22.688Z,16.92
2023-01-22T09:52:54.240Z,17.40
2023-01-22T09:55:33.169Z,10.68
2023-01-22T09:58:05.799Z,16.30
2023-01-22T10:01:00.380Z,19.25
2023-01-22T10:03:41.504Z,20.13
2023-01-22T10:06:19.143Z,20.08
2023-01-22T10:09:04.819Z,15.38
2023-01-22T10:11:34.491Z,15.40
2023-01-22T10:14:06.055Z,14.27
2023-01-22T10:16:33.173Z,12.45
2023-01-22T10:19:21.574Z,15.25
2023-01-22T10:22:02.610Z,14.73
2023-01-22T10:24:30.342Z,13.15
2023-01-22T10:26:59.430Z,13.70
2023-01-22T10:29:34.781Z,13.00
2023-01-22T10:32:25.066Z,14.98
2023-01-22T10:35:20.866Z,15.63
2023-01-22T10:37:52.600Z,13.45
2023-01-22T10:40:23.073Z,13.55
2023-01-22T10:43:11.398Z,13.82
2023-01-22T10:45:50.160Z,15.27
2023-01-22T10:48:17.488Z,14.23
2023-01-22T10:50:47.677Z,13.23
2023-01-22T10:53:38.295Z,13.88
2023-01-22T10:56:12.460Z,13.43
2023-01-22T10:58:48.763Z,13.32
2023-01-22T11:01:16.908Z,13.05
2023-01-22T11:03:44.040Z,17.40
2023-01-22T11:06:36.261Z,17.85
2023-01-22T11:09:20.463Z,14.23
2023-01-22T11:12:11.603Z,13.40
2023-01-22T11:14:40.253Z,12.15
2023-01-22T11:17:27.997Z,13.20
2023-01-22T11:20:04.980Z,13.85
2023-01-22T11:22:38.391Z,14.50
2023-01-22T11:25:11.380Z,14.65
2023-01-22T11:27:44.272Z,12.27
2023-01-22T11:30:55.654Z,13.13
2023-01-22T11:33:50.094Z,14.35
2023-01-22T11:36:27.338Z,13.50
2023-01-22T11:39:12.130Z,13.35
2023-01-22T11:41:55.572Z,15.27
2023-01-22T11:44:32.634Z,13.55
2023-01-22T11:47:28.640Z,12.90
2023-01-22T11:50:04.581Z,14.57
2023-01-22T11:52:40.112Z,12.65
2023-01-22T11:55:31.456Z,13.98
2023-01-22T11:58:30.499Z,12.10
2023-01-22T12:01:41.345Z,12.25
2023-01-22T12:04:48.306Z,13.10
2023-01-22T12:07:43.024Z,11.50
2023-01-22T12:10:28.878Z,12.50
2023-01-22T12:13:27.531Z,14.93
2023-01-22T12:16:18.293Z,12.90
2023-01-22T12:19:22.672Z,14.75
2023-01-22T12:23:06.603Z,14.82
2023-01-22T12:26:11.929Z,14.00
2023-01-22T12:28:56.929Z,14.07
2023-01-22T12:31:35.633Z,14.40
2023-01-22T12:34:20.503Z,15.02
2023-01-22T12:36:48.901Z,13.13
2023-01-22T12:39:33.206Z,12.98
2023-01-22T12:42:06.185Z,12.85
2023-01-22T12:44:47.915Z,13.05
2023-01-22T12:47:31.641Z,13.13
2023-01-22T12:49:58.756Z,12.05
2023-01-22T12:52:35.762Z,14.05
2023-01-22T12:55:31.725Z,13.65
2023-01-22T12:57:59.542Z,15.40
2023-01-22T13:00:39.139Z,13.70
2023-01-22T13:03:33.164Z,14.23
2023-01-22T13:06:04.331Z,15.35
2023-01-22T13:08:46.585Z,17.77
2023-01-22T13:11:28.676Z,15.65
2023-01-22T13:14:28.874Z,15.45
2023-01-22T13:17:03.680Z,15.18
2023-01-22T13:19:44.917Z,14.23
2023-01-22T13:22:21.981Z,15.02
2023-01-22T13:24:58.086Z,14.85
2023-01-22T13:27:39.339Z,15.32
2023-01-22T13:30:28.863Z,11.40
2023-01-22T13:33:16.297Z,13.98
2023-01-22T13:35:46.149Z,14.45
2023-01-22T13:38:29.769Z,15.55
2023-01-22T13:41:01.688Z,15.82
2023-01-22T13:43:31.438Z,14.82
2023-01-22T13:45:59.079Z,16.63
2023-01-22T13:48:27.478Z,16.00
2023-01-22T13:51:04.942Z,15.63
2023-01-22T13:53:32.882Z,13.90
2023-01-22T13:56:01.351Z,15.40
2023-01-22T13:58:48.401Z,16.13
2023-01-22T14:01:37.731Z,15.98
2023-01-22T14:04:06.190Z,17.60
2023-01-22T14:06:49.782Z,19.70
2023-01-22T14:09:32.754Z,21.13
2023-01-22T14:12:01.563Z,19.65
2023-01-22T14:14:40.400Z,19.40
2023-01-22T14:17:08.005Z,20.40
2023-01-22T14:19:35.027Z,19.08
2023-01-22T14:22:07.110Z,16.85
2023-01-22T14:24:34.366Z,11.90
2023-01-22T14:27:01.553Z,18.13
2023-01-22T14:29:31.417Z,16.67
2023-01-22T14:31:58.598Z,17.63
2023-01-22T14:34:25.867Z,21.42
2023-01-22T14:36:54.154Z,24.90
2023-01-22T14:39:21.942Z,22.50
2023-01-22T14:41:52.127Z,21.92
2023-01-22T14:44:19.615Z,21.17
2023-01-22T14:46:52.501Z,18.83
2023-01-22T14:49:20.154Z,18.15
2023-01-22T14:51:47.518Z,16.55
2023-01-22T14:54:14.730Z,17.95
2023-01-22T14:56:42.019Z,16.77
2023-01-22T14:59:09.182Z,16.13
2023-01-22T15:01:36.423Z,16.80
2023-01-22T15:04:07.376Z,16.42
2023-01-22T15:06:34.574Z,18.63
2023-01-22T15:09:01.796Z,18.73
2023-01-22T15:11:28.877Z,16.38
2023-01-22T15:13:56.015Z,18.00
2023-01-22T15:16:25.806Z,18.33
2023-01-22T15:18:56.561Z,18.67
2023-01-22T15:21:26.103Z,18.27
2023-01-22T15:23:53.277Z,17.15
2023-01-22T15:26:35.459Z,18.85
2023-01-22T15:29:12.572Z,20.42
2023-01-22T15:31:40.617Z,18.27
2023-01-22T15:34:08.738Z,20.40
2023-01-22T15:36:39.720Z,20.65
2023-01-22T15:39:07.633Z,19.38
2023-01-22T15:41:37.091Z,19.02
2023-01-22T15:44:06.184Z,19.63
2023-01-22T15:46:40.164Z,18.63
2023-01-22T15:49:08.416Z,19.45
2023-01-22T15:51:36.205Z,18.50
2023-01-22T15:54:06.947Z,19.58
2023-01-22T15:56:41.795Z,20.67
2023-01-22T15:59:09.131Z,19.98
2023-01-22T16:01:36.233Z,20.55
2023-01-22T16:04:06.317Z,25.15
2023-01-22T16:06:35.374Z,26.98
2023-01-22T16:09:05.982Z,28.35
2023-01-22T16:11:34.687Z,24.77
2023-01-22T16:14:02.221Z,22.05
2023-01-22T16:16:36.358Z,20.23
2023-01-22T16:19:08.447Z,18.67
2023-01-22T16:21:35.944Z,16.48
2023-01-22T16:24:03.786Z,16.30
2023-01-22T16:26:33.865Z,17.90
2023-01-22T16:29:04.941Z,17.90
2023-01-22T16:31:34.322Z,17.85
2023-01-22T16:34:17.922Z,18.20
2023-01-22T16:36:49.233Z,16.85
2023-01-22T16:39:23.473Z,16.17
2023-01-22T16:41:52.155Z,20.40
2023-01-22T16:44:27.272Z,17.83
2023-01-22T16:46:57.823Z,18.48
2023-01-22T16:49:31.836Z,17.88
2023-01-22T16:52:21.084Z,17.05
2023-01-22T16:54:50.103Z,16.98
2023-01-22T16:57:19.313Z,15.77
2023-01-22T16:59:46.466Z,17.55
2023-01-22T17:02:19.246Z,19.60
2023-01-22T17:04:46.996Z,18.50
2023-01-22T17:07:31.550Z,17.65
2023-01-22T17:10:04.546Z,17.00
2023-01-22T17:12:31.701Z,14.43
2023-01-22T17:15:01.819Z,16.08
2023-01-22T17:17:28.934Z,17.10
2023-01-22T17:19:58.598Z,16.63
2023-01-22T17:22:26.710Z,15.80
2023-01-22T17:24:53.941Z,16.13
2023-01-22T17:27:25.842Z,15.48
2023-01-22T17:29:52.986Z,15.05
2023-01-22T17:32:20.679Z,16.17
2023-01-22T17:34:50.200Z,14.07
2023-01-22T17:37:17.323Z,15.38
2023-01-22T17:39:50.550Z,14.75
2023-01-22T17:42:35.885Z,14.68
2023-01-22T17:45:02.976Z,14.40
2023-01-22T17:47:32.620Z,14.93
2023-01-22T17:49:59.645Z,14.38
2023-01-22T17:52:28.924Z,14.48
2023-01-22T17:54:56.048Z,13.20
2023-01-22T17:57:23.182Z,14.38
2023-01-22T17:59:51.431Z,13.10
2023-01-22T18:02:18.521Z,15.00
2023-01-22T18:04:48.072Z,17.80
2023-01-22T18:07:18.436Z,16.77
2023-01-22T18:09:49.924Z,14.80
2023-01-22T18:12:17.015Z,17.15
2023-01-22T18:14:44.301Z,16.67
2023-01-22T18:17:11.387Z,16.42
2023-01-22T18:19:38.463Z,15.80
2023-01-22T18:22:05.645Z,16.30
2023-01-22T18:24:36.604Z,14.75
2023-01-22T18:27:03.701Z,17.02
2023-01-22T18:29:30.796Z,15.23
2023-01-22T18:31:58.506Z,16.08
2023-01-22T18:34:25.853Z,15.00
2023-01-22T18:36:55.496Z,15.68
2023-01-22T18:39:23.484Z,14.95
2023-01-22T18:41:50.959Z,14.57
2023-01-22T18:44:19.690Z,15.68
2023-01-22T18:46:48.560Z,15.80
2023-01-22T18:49:19.082Z,16.27
2023-01-22T18:51:47.006Z,15.50
2023-01-22T18:54:14.999Z,15.20
2023-01-22T18:56:42.366Z,15.02
2023-01-22T18:59:09.615Z,14.35
2023-01-22T19:01:38.675Z,14.48
2023-01-22T19:04:09.964Z,13.43
2023-01-22T19:06:38.813Z,14.73
2023-01-22T19:09:12.471Z,14.27
2023-01-22T19:11:43.688Z,14.57
2023-01-22T19:14:18.024Z,16.08
2023-01-22T19:16:48.583Z,16.10
2023-01-22T19:19:17.012Z,18.10
2023-01-22T19:21:47.704Z,17.15
2023-01-22T19:24:18.576Z,18.38
2023-01-22T19:26:46.851Z,17.60
2023-01-22T19:29:17.631Z,17.50
2023-01-22T19:31:52.163Z,16.73
2023-01-22T19:34:25.459Z,15.32
2023-01-22T19:36:58.584Z,15.55
2023-01-22T19:39:26.540Z,15.68
2023-01-22T19:41:54.703Z,17.75
2023-01-22T19:44:22.888Z,17.98
2023-01-22T19:46:50.358Z,19.10
2023-01-22T19:49:17.559Z,18.30
2023-01-22T19:51:47.663Z,15.35
2023-01-22T19:54:18.607Z,16.35
2023-01-22T19:56:46.049Z,15.75
2023-01-22T19:59:20.525Z,15.23
2023-01-22T20:01:50.032Z,14.23
2023-01-22T20:04:25.522Z,12.82
2023-01-22T20:07:05.071Z,13.13
2023-01-22T20:09:33.940Z,11.65
2023-01-22T20:12:01.604Z,12.27
2023-01-22T20:14:41.431Z,12.32
2023-01-22T20:17:08.716Z,13.48
2023-01-22T20:19:38.226Z,14.93
2023-01-22T20:22:10.797Z,16.55
2023-01-22T20:24:40.531Z,14.85
2023-01-22T20:27:08.674Z,18.77
2023-01-22T20:29:38.313Z,18.38
2023-01-22T20:32:06.336Z,18.25
2023-01-22T20:34:33.870Z,21.70
2023-01-22T20:37:01.022Z,20.95
2023-01-22T20:39:30.516Z,20.35
2023-01-22T20:41:59.151Z,20.92
2023-01-22T20:44:28.464Z,20.77
2023-01-22T20:46:59.273Z,19.40
2023-01-22T20:49:34.535Z,19.33
2023-01-22T20:52:01.702Z,29.13
2023-01-22T20:54:30.332Z,22.70
2023-01-22T20:56:57.522Z,20.30
2023-01-22T20:59:25.587Z,16.85
2023-01-22T21:01:55.570Z,16.50
2023-01-22T21:04:26.157Z,14.63
2023-01-22T21:06:53.715Z,15.43
2023-01-22T21:09:20.987Z,15.43
2023-01-22T21:11:50.731Z,16.77
2023-01-22T21:14:20.451Z,18.20
2023-01-22T21:16:49.870Z,22.00
2023-01-22T21:19:26.117Z,19.13
2023-01-22T21:21:58.235Z,20.48
2023-01-22T21:26:52.987Z,16.80
2023-01-22T21:29:23.655Z,16.50
2023-01-22T21:31:53.044Z,16.80
2023-01-22T21:34:25.895Z,16.27
2023-01-22T21:36:58.863Z,17.27
2023-01-22T21:39:29.021Z,16.98
2023-01-22T21:42:16.523Z,16.38
2023-01-22T21:45:03.497Z,14.32
2023-01-22T21:47:31.065Z,11.73
2023-01-22T21:49:58.462Z,12.20
2023-01-22T21:52:26.927Z,12.48
2023-01-22T21:54:54.064Z,12.25
2023-01-22T21:57:21.290Z,12.50
2023-01-22T21:59:48.544Z,12.63
2023-01-22T22:02:19.724Z,12.13
2023-01-22T22:04:47.541Z,12.80
2023-01-22T22:07:14.860Z,11.98
2023-01-22T22:09:44.334Z,13.05
2023-01-22T22:12:11.665Z,12.88
2023-01-22T22:14:38.841Z,14.48
2023-01-22T22:17:07.737Z,15.23
2023-01-22T22:19:35.004Z,16.90
2023-01-22T22:22:02.141Z,15.18
2023-01-22T22:24:29.267Z,14.73
2023-01-22T22:26:56.324Z,17.10
2023-01-22T22:29:23.572Z,16.23
2023-01-22T22:31:50.754Z,16.00
2023-01-22T22:34:17.897Z,14.88
2023-01-22T22:36:45.089Z,17.48
2023-01-22T22:39:12.242Z,17.60
2023-01-22T22:41:39.596Z,19.23
2023-01-22T22:44:07.877Z,18.55
2023-01-22T22:46:38.788Z,14.48
2023-01-22T22:49:07.197Z,14.65
2023-01-22T22:51:38.271Z,11.40
2023-01-22T22:54:15.673Z,9.95
2023-01-22T22:56:48.199Z,10.27
2023-01-22T22:59:18.674Z,11.35
2023-01-22T23:01:45.751Z,10.73
2023-01-22T23:04:13.586Z,10.88
2023-01-22T23:06:45.119Z,12.25
2023-01-22T23:09:19.764Z,9.95
2023-01-22T23:11:47.632Z,11.88
2023-01-22T23:14:14.764Z,11.50
2023-01-22T23:16:43.714Z,10.10
2023-01-22T23:19:21.619Z,11.25
2023-01-22T23:21:58.489Z,9.70
2023-01-22T23:24:26.223Z,9.90
2023-01-22T23:26:54.035Z,9.88
2023-01-22T23:29:26.917Z,9.43
2023-01-22T23:31:54.355Z,10.05
2023-01-22T23:34:22.659Z,10.05
2023-01-22T23:36:51.326Z,10.38
2023-01-22T23:39:20.645Z,10.63
2023-01-22T23:41:47.811Z,10.07
2023-01-22T23:44:14.984Z,10.95
2023-01-22T23:46:42.458Z,10.48
2023-01-22T23:49:11.081Z,11.07
2023-01-22T23:51:41.207Z,10.77
2023-01-22T23:54:09.036Z,11.63
2023-01-22T23:56:36.278Z,10.82
2023-01-22T23:59:03.940Z,10.93
